createdAt,value
2023-09-28T00:02:51.729Z,10.50
2023-09-28T00:12:51.711Z,10.50
2023-09-28T00:22:51.740Z,11.00
2023-09-28T00:32:51.776Z,10.70
2023-09-28T00:42:51.853Z,11.30
2023-09-28T00:52:51.835Z,11.90
2023-09-28T01:02:51.770Z,11.40
2023-09-28T01:12:51.722Z,11.80
2023-09-28T01:22:51.780Z,11.60
2023-09-28T01:32:51.727Z,11.70
2023-09-28T01:42:51.729Z,12.50
2023-09-28T01:52:51.813Z,12.20
2023-09-28T02:02:51.783Z,13.20
2023-09-28T02:12:51.729Z,13.70
2023-09-28T02:22:51.781Z,13.90
2023-09-28T02:32:51.837Z,13.90
2023-09-28T02:42:51.772Z,14.70
2023-09-28T02:52:51.789Z,14.90
2023-09-28T03:02:51.814Z,21.30
2023-09-28T03:12:51.800Z,16.00
2023-09-28T03:22:51.849Z,16.50
2023-09-28T03:32:51.939Z,16.10
2023-09-28T03:42:51.797Z,17.30
2023-09-28T03:52:51.927Z,16.80
2023-09-28T04:02:54.184Z,16.20
2023-09-28T04:12:51.808Z,17.40
2023-09-28T04:22:51.814Z,16.80
2023-09-28T04:32:51.789Z,15.70
2023-09-28T04:42:51.796Z,16.20
2023-09-28T04:52:51.932Z,16.00
2023-09-28T05:02:51.855Z,15.40
2023-09-28T05:12:51.829Z,16.30
2023-09-28T05:22:51.863Z,15.10
2023-09-28T05:32:51.822Z,16.20
2023-09-28T05:42:52.009Z,16.70
2023-09-28T05:52:52.812Z,14.60
2023-09-28T06:02:51.891Z,13.50
2023-09-28T06:12:51.862Z,13.10
2023-09-28T06:22:51.998Z,14.20
2023-09-28T06:32:51.888Z,13.50
2023-09-28T06:42:51.845Z,12.50
2023-09-28T06:52:51.898Z,11.80
2023-09-28T07:02:51.874Z,11.70
2023-09-28T07:12:51.970Z,10.30
2023-09-28T07:22:51.883Z,9.70
2023-09-28T07:32:51.960Z,9.70
2023-09-28T07:42:51.893Z,9.90
2023-09-28T07:52:51.945Z,9.40
2023-09-28T08:02:51.927Z,9.10
2023-09-28T08:12:51.886Z,7.90
2023-09-28T08:22:52.009Z,7.70
2023-09-28T08:32:51.933Z,6.90
2023-09-28T08:42:51.928Z,7.00
2023-09-28T09:02:52.215Z,6.50
2023-09-28T09:12:51.928Z,5.70
2023-09-28T10:22:52.023Z,4.60
2023-09-28T10:42:51.984Z,5.00
2023-09-28T11:12:52.036Z,4.70
2023-09-28T11:32:52.037Z,4.80
2023-09-28T12:02:52.122Z,4.30
2023-09-28T12:12:52.037Z,4.40
2023-09-28T12:22:52.028Z,4.40
2023-09-28T13:02:52.233Z,8.80
2023-09-28T13:32:52.277Z,5.60
2023-09-28T15:22:52.147Z,4.40
2023-09-28T15:32:52.425Z,3.80
2023-09-28T15:42:52.117Z,3.90
2023-09-28T15:52:52.159Z,3.70
2023-09-28T16:02:52.274Z,4.40
2023-09-28T16:12:52.162Z,4.40
2023-09-28T16:22:52.173Z,34.90
2023-09-28T16:32:52.420Z,4.60
2023-09-28T16:42:52.177Z,5.10
2023-09-28T16:52:52.176Z,7.40
2023-09-28T17:02:52.282Z,5.20
2023-09-28T17:12:52.205Z,5.10
2023-09-28T17:22:52.289Z,5.20
2023-09-28T17:32:52.272Z,5.50
2023-09-28T17:52:52.224Z,5.00
2023-09-28T18:02:52.342Z,5.70
2023-09-28T18:12:52.206Z,5.50
2023-09-28T18:22:52.242Z,5.60
2023-09-28T18:32:52.298Z,5.70
2023-09-28T18:42:52.344Z,6.10
2023-09-28T18:52:52.207Z,5.50
2023-09-28T19:02:52.329Z,5.70
2023-09-28T19:12:52.237Z,5.80
2023-09-28T19:22:52.228Z,6.40
2023-09-28T19:32:52.389Z,6.40
2023-09-28T19:42:52.218Z,6.90
2023-09-28T19:52:52.382Z,6.80
2023-09-28T20:02:52.282Z,6.60
2023-09-28T20:12:52.249Z,6.90
2023-09-28T20:22:57.295Z,7.40
2023-09-28T20:32:52.301Z,6.20
2023-09-28T20:42:52.262Z,7.00
2023-09-28T20:52:52.499Z,7.70
2023-09-28T21:02:52.327Z,7.50
2023-09-28T21:12:52.410Z,7.80
2023-09-28T21:22:52.274Z,7.50
2023-09-28T21:32:52.376Z,7.80
2023-09-28T21:42:52.414Z,7.70
2023-09-28T21:52:52.291Z,8.90
2023-09-28T22:02:52.376Z,8.20
2023-09-28T22:12:52.315Z,7.90
2023-09-28T22:22:52.318Z,8.00
2023-09-28T22:32:52.371Z,8.00
2023-09-28T22:42:52.307Z,8.50
2023-09-28T22:52:52.309Z,8.00
2023-09-28T23:02:52.495Z,7.40
2023-09-28T23:12:52.311Z,7.70
2023-09-28T23:22:52.347Z,8.10
2023-09-28T23:32:52.568Z,8.30
2023-09-28T23:42:52.462Z,8.30
2023-09-28T23:52:52.441Z,9.10
